sensor_id;sensor_type;location;lat;lon;timestamp;temperature;humidity
50957;DHT22;55361;50.876;20.634;2024-02-04T02:40:47;27;80
50957;DHT22;55361;50.876;20.634;2024-02-04T02:50:16;27;80
50957;DHT22;55361;50.876;20.634;2024-02-04T03:00:11;27;80
50957;DHT22;55361;50.876;20.634;2024-02-04T03:10:10;27;80
50957;DHT22;55361;50.876;20.634;2024-02-04T03:20:09;27;80
50957;DHT22;55361;50.876;20.634;2024-02-04T03:30:05;27;80
50957;DHT22;55361;50.876;20.634;2024-02-04T03:40:02;27;80
50957;DHT22;55361;50.876;20.634;2024-02-04T03:50:12;27;80
50957;DHT22;55361;50.876;20.634;2024-02-04T04:00:07;27;80
50957;DHT22;55361;50.876;20.634;2024-02-04T04:10:06;27;80
50957;DHT22;55361;50.876;20.634;2024-02-04T04:20:15;27;80
50957;DHT22;55361;50.876;20.634;2024-02-04T04:30:12;27;80
50957;DHT22;55361;50.876;20.634;2024-02-04T04:40:14;27;80
50957;DHT22;55361;50.876;20.634;2024-02-04T04:50:14;27;80
50957;DHT22;55361;50.876;20.634;2024-02-04T05:00:12;27;80
50957;DHT22;55361;50.876;20.634;2024-02-04T05:10:03;27;80
50957;DHT22;55361;50.876;20.634;2024-02-04T05:20:10;27;80
50957;DHT22;55361;50.876;20.634;2024-02-04T05:30:04;27;80
50957;DHT22;55361;50.876;20.634;2024-02-04T05:40:08;27;80
50957;DHT22;55361;50.876;20.634;2024-02-04T05:50:13;27;80
50957;DHT22;55361;50.876;20.634;2024-02-04T06:00:07;27;80
50957;DHT22;55361;50.876;20.634;2024-02-04T06:10:09;27;80
50957;DHT22;55361;50.876;20.634;2024-02-04T06:20:11;27;80
50957;DHT22;55361;50.876;20.634;2024-02-04T06:30:15;27;80
50957;DHT22;55361;50.876;20.634;2024-02-04T06:40:07;27;82
50957;DHT22;55361;50.876;20.634;2024-02-04T06:50:07;27;82
50957;DHT22;55361;50.876;20.634;2024-02-04T07:00:09;27;82
50957;DHT22;55361;50.876;20.634;2024-02-04T07:10:09;27;82
50957;DHT22;55361;50.876;20.634;2024-02-04T07:20:03;27;82
50957;DHT22;55361;50.876;20.634;2024-02-04T07:30:06;27;82
50957;DHT22;55361;50.876;20.634;2024-02-04T07:40:14;27;82
50957;DHT22;55361;50.876;20.634;2024-02-04T07:50:11;27;82
50957;DHT22;55361;50.876;20.634;2024-02-04T08:00:12;27;82
50957;DHT22;55361;50.876;20.634;2024-02-04T08:10:06;27;82
50957;DHT22;55361;50.876;20.634;2024-02-04T08:20:12;27;82
50957;DHT22;55361;50.876;20.634;2024-02-04T08:30:03;27;82
50957;DHT22;55361;50.876;20.634;2024-02-04T08:40:09;27;82
50957;DHT22;55361;50.876;20.634;2024-02-04T08:50:03;27;82
50957;DHT22;55361;50.876;20.634;2024-02-04T09:00:13;27;82
50957;DHT22;55361;50.876;20.634;2024-02-04T09:10:13;27;82
50957;DHT22;55361;50.876;20.634;2024-02-04T09:20:02;27;82
50957;DHT22;55361;50.876;20.634;2024-02-04T09:30:15;27;82
50957;DHT22;55361;50.876;20.634;2024-02-04T09:50:02;27;82
50957;DHT22;55361;50.876;20.634;2024-02-04T10:00:10;27;82
50957;DHT22;55361;50.876;20.634;2024-02-04T10:10:09;27;81
50957;DHT22;55361;50.876;20.634;2024-02-04T10:20:03;27;81
50957;DHT22;55361;50.876;20.634;2024-02-04T10:30:03;27;81
50957;DHT22;55361;50.876;20.634;2024-02-04T10:40:12;27;81
50957;DHT22;55361;50.876;20.634;2024-02-04T10:50:16;27;81
50957;DHT22;55361;50.876;20.634;2024-02-04T11:00:07;27;81
50957;DHT22;55361;50.876;20.634;2024-02-04T11:10:13;27;81
50957;DHT22;55361;50.876;20.634;2024-02-04T11:30:04;27;81
50957;DHT22;55361;50.876;20.634;2024-02-04T11:40:17;27;82
50957;DHT22;55361;50.876;20.634;2024-02-04T11:50:11;27;82
50957;DHT22;55361;50.876;20.634;2024-02-04T12:00:02;27;82
50957;DHT22;55361;50.876;20.634;2024-02-04T12:10:10;27.25;78
50957;DHT22;55361;50.876;20.634;2024-02-04T12:20:08;27.25;78
50957;DHT22;55361;50.876;20.634;2024-02-04T12:30:11;27.25;78
50957;DHT22;55361;50.876;20.634;2024-02-04T12:40:21;27.25;78
50957;DHT22;55361;50.876;20.634;2024-02-04T12:50:10;27.25;78
50957;DHT22;55361;50.876;20.634;2024-02-04T13:00:22;27.25;78
50957;DHT22;55361;50.876;20.634;2024-02-04T13:10:02;27.74;75
50957;DHT22;55361;50.876;20.634;2024-02-04T13:20:03;27.74;75
50957;DHT22;55361;50.876;20.634;2024-02-04T13:30:14;27.74;75
50957;DHT22;55361;50.876;20.634;2024-02-04T13:40:06;27.96;72
50957;DHT22;55361;50.876;20.634;2024-02-04T13:50:10;27.96;72
50957;DHT22;55361;50.876;20.634;2024-02-04T14:00:11;27.96;72
50957;DHT22;55361;50.876;20.634;2024-02-04T14:10:19;27;72
50957;DHT22;55361;50.876;20.634;2024-02-04T14:20:11;27;72
50957;DHT22;55361;50.876;20.634;2024-02-04T14:30:16;27;72
50957;DHT22;55361;50.876;20.634;2024-02-04T14:40:08;27;72
50957;DHT22;55361;50.876;20.634;2024-02-04T14:50:19;27;72
50957;DHT22;55361;50.876;20.634;2024-02-04T15:00:18;27;72
50957;DHT22;55361;50.876;20.634;2024-02-04T15:10:07;28;71
50957;DHT22;55361;50.876;20.634;2024-02-04T15:20:14;28;71
50957;DHT22;55361;50.876;20.634;2024-02-04T15:30:03;28;71
50957;DHT22;55361;50.876;20.634;2024-02-04T15:40:10;28;71
50957;DHT22;55361;50.876;20.634;2024-02-04T15:50:03;28;71
50957;DHT22;55361;50.876;20.634;2024-02-04T16:00:29;28;71
50957;DHT22;55361;50.876;20.634;2024-02-04T16:20:19;28;71
50957;DHT22;55361;50.876;20.634;2024-02-04T16:30:03;28;71
50957;DHT22;55361;50.876;20.634;2024-02-04T16:40:06;28.3;71
50957;DHT22;55361;50.876;20.634;2024-02-04T16:50:15;28.3;71
50957;DHT22;55361;50.876;20.634;2024-02-04T17:00:03;28.3;71
50957;DHT22;55361;50.876;20.634;2024-02-04T17:20:08;28.38;70
50957;DHT22;55361;50.876;20.634;2024-02-04T17:30:20;28.38;70
50957;DHT22;55361;50.876;20.634;2024-02-04T17:50:13;28.32;71
50957;DHT22;55361;50.876;20.634;2024-02-04T18:00:19;28.32;71
50957;DHT22;55361;50.876;20.634;2024-02-04T18:20:13;28;71
50957;DHT22;55361;50.876;20.634;2024-02-04T18:30:13;28;71
50957;DHT22;55361;50.876;20.634;2024-02-04T18:40:08;28;71
50957;DHT22;55361;50.876;20.634;2024-02-04T18:50:10;28;73
50957;DHT22;55361;50.876;20.634;2024-02-04T19:00:07;28;73
50957;DHT22;55361;50.876;20.634;2024-02-04T19:10:15;28;73
50957;DHT22;55361;50.876;20.634;2024-02-04T19:20:06;28;73
50957;DHT22;55361;50.876;20.634;2024-02-04T19:30:17;28;73
50957;DHT22;55361;50.876;20.634;2024-02-04T19:40:07;28;73
50957;DHT22;55361;50.876;20.634;2024-02-04T19:50:06;28;73
50957;DHT22;55361;50.876;20.634;2024-02-04T20:00:03;28;73
50957;DHT22;55361;50.876;20.634;2024-02-04T20:10:06;28;73
50957;DHT22;55361;50.876;20.634;2024-02-04T20:20:15;28;77
50957;DHT22;55361;50.876;20.634;2024-02-04T20:30:16;28;77
50957;DHT22;55361;50.876;20.634;2024-02-04T20:40:08;28;77
50957;DHT22;55361;50.876;20.634;2024-02-04T20:50:11;28;77
50957;DHT22;55361;50.876;20.634;2024-02-04T21:00:08;28;77
50957;DHT22;55361;50.876;20.634;2024-02-04T21:10:12;28;77
50957;DHT22;55361;50.876;20.634;2024-02-04T21:20:15;28;78
50957;DHT22;55361;50.876;20.634;2024-02-04T21:30:14;28;78
50957;DHT22;55361;50.876;20.634;2024-02-04T21:40:14;28;78
50957;DHT22;55361;50.876;20.634;2024-02-04T21:50:15;27;78
50957;DHT22;55361;50.876;20.634;2024-02-04T22:00:13;27;78
50957;DHT22;55361;50.876;20.634;2024-02-04T22:10:02;27;78
50957;DHT22;55361;50.876;20.634;2024-02-04T22:20:06;27;78
50957;DHT22;55361;50.876;20.634;2024-02-04T22:30:17;27;78
50957;DHT22;55361;50.876;20.634;2024-02-04T22:40:10;27;78
50957;DHT22;55361;50.876;20.634;2024-02-04T22:50:08;27;76
50957;DHT22;55361;50.876;20.634;2024-02-04T23:00:37;27;76
50957;DHT22;55361;50.876;20.634;2024-02-04T23:10:11;27;76
50957;DHT22;55361;50.876;20.634;2024-02-04T23:20:13;27;76
50957;DHT22;55361;50.876;20.634;2024-02-04T23:30:15;27;76
50957;DHT22;55361;50.876;20.634;2024-02-04T23:40:16;27;76
50957;DHT22;55361;50.876;20.634;2024-02-04T23:50:03;27;76
